Latest Conditions
At L.F.Wade Int. Airport
Recorded at 7:55 am
Overcast
Temp.: 
19°C/66°F
Humidity: 
65%
Wind: 
SSE 6KT
or 7mph
Island Observations
Observations
Monday, January 26, 2015

Observations are in local time and taken at least once an hour, or upon the start and end of specified events such as showers and thunderstorms.

Time Sky / Weather Wind Speed/Gusts Temp. R.H. Pressure
     knots (mph)  °C (°F)  %  mb / "Hg
 07:55 Overcast  SSE 6/0 (7/0) 19(66) 65 1016 / 29.99
 06:55 Overcast  E 5/0 (6/0) 16(61) 75 1016 / 30.00
 05:55 Overcast  Calm 17(62) 80 1016 / 30.01
 04:55 Overcast  Calm 17(63) 77 1016 / 30.00
 03:55 Overcast  Calm 17(63) 72 1016 / 29.99
 02:55 Mostly Cloudy  Calm 17(63) 72 1016 / 30.00
 01:55 Mostly Cloudy  Calm 18(64) 71 1016 / 30.00
 00:55 Overcast  Calm 18(64) 65 1016 / 30.00
 23:55 Overcast  Calm 18(64) 65 1016 / 30.00
 22:55 Overcast  W 6/0 (7/0) 19(65) 56 1016 / 30.00
 21:55 Mostly Cloudy  W 8/0 (9/0) 19(66) 51 1015 / 29.98
 20:55 Mostly Cloudy  W 10/0 (12/0) 19(66) 52 1015 / 29.98
 19:55 Mostly Cloudy  W 11/0 (13/0) 19(66) 54 1015 / 29.98
 18:55 Mostly Cloudy  W 13/0 (15/0) 19(66) 57 1015 / 29.97
 17:55 Mostly Cloudy  W 14/0 (16/0) 19(67) 58 1014 / 29.94
 16:55 Mostly Cloudy  W 14/0 (16/0) 20(67) 56 1014 / 29.93
 15:55 Mostly Cloudy  W 14/0 (16/0) 20(68) 58 1013 / 29.91
 14:55 Mostly Cloudy  W 18/0 (21/0) 20(69) 55 1012 / 29.88
 13:55 Mostly Cloudy  W 18/0 (21/0) 20(69) 56 1012 / 29.88
 12:55 Mostly Cloudy  W 16/0 (18/0) 21(69) 58 1012 / 29.87
 11:55 Mostly Cloudy  W 14/0 (16/0) 21(70) 63 1012 / 29.89
 10:55 Mostly Cloudy  W 18/0 (21/0) 21(69) 63 1012 / 29.89
 09:55 Mostly Cloudy  W 18/0 (21/0) 21(69) 62 1012 / 29.87
 08:55 Mostly Cloudy Showers W 18/0 (21/0) 20(68) 67 1010 / 29.84
Observations from our AWOS sites are available here (password and username are both 'guest').